Time;durP1;ratioP1;P1;durP2;ratioP2;P2;SDS_P1;SDS_P2;PMS_P1;PMS_P2;Temp;Humidity;BMP_temperature;BMP_pressure;BME280_temperature;BME280_humidity;BME280_pressure;Samples;Min_cycle;Max_cycle;Signal;HPM_P1;HPM_P2
2022/01/25 00:15:02;;;;;;;19.63;13.93;;;-0.40;99.90;;;-1.97;99.61;99594.66;5065076;28;20472;-71
2022/01/25 00:27:36;;;;;;;18.50;13.70;;;-0.60;99.90;;;-2.24;100.00;99576.88;5057598;28;20485;-71
2022/01/25 00:30:22;;;;;;;18.70;11.70;;;-0.60;99.90;;;-2.26;99.97;99571.69;5075151;28;20472;-71
2022/01/25 00:32:49;;;;;;;17.10;13.13;;;-0.70;99.90;;;-2.12;100.00;99570.81;5075844;28;20456;-72
2022/01/25 00:35:17;;;;;;;21.17;13.53;;;-0.60;99.90;;;-2.10;99.78;99568.94;5075150;28;20496;-73
2022/01/25 00:37:44;;;;;;;18.37;12.30;;;-0.50;99.90;;;-2.26;99.55;99560.25;5075927;28;20468;-72
2022/01/25 00:40:12;;;;;;;19.83;12.50;;;-0.50;99.90;;;-2.25;99.20;99572.53;5075467;28;20472;-72
2022/01/25 00:42:38;;;;;;;21.07;13.23;;;-0.60;99.90;;;-2.19;99.54;99573.00;5057502;28;20499;-73
2022/01/25 00:45:08;;;;;;;18.53;13.37;;;-0.50;99.90;;;-2.22;99.21;99577.63;5075345;28;20968;-72
2022/01/25 00:47:35;;;;;;;22.90;14.50;;;-0.50;99.90;;;-2.28;99.00;99577.09;5074009;28;20441;-73
2022/01/25 00:50:02;;;;;;;26.60;13.70;;;-0.60;99.90;;;-2.30;99.11;99580.75;5057153;28;20457;-72
2022/01/25 00:55:12;;;;;;;19.40;12.93;;;-0.70;99.90;;;-2.56;99.10;99578.78;5056236;28;20449;-72
2022/01/25 00:57:39;;;;;;;20.80;13.23;;;-0.80;99.90;;;-2.93;99.88;99536.03;5073697;28;20673;-73
2022/01/25 01:00:10;;;;;;;16.60;11.70;;;-1.00;99.90;;;-2.93;100.00;99538.66;5057709;28;20460;-73
2022/01/25 01:02:37;;;;;;;19.80;13.17;;;-1.10;99.90;;;-2.54;99.53;99577.81;5074089;28;20490;-74
2022/01/25 01:05:05;;;;;;;16.40;11.67;;;-1.00;99.90;;;-2.70;98.99;99565.53;5074993;28;20766;-73
2022/01/25 01:07:33;;;;;;;17.33;12.03;;;-1.00;99.90;;;-2.48;99.01;99573.00;5074998;28;20425;-73
2022/01/25 01:10:01;;;;;;;14.10;11.30;;;-0.90;99.90;;;-2.44;98.07;99579.81;5077403;28;20457;-71
2022/01/25 01:12:57;;;;;;;18.83;12.83;;;-0.80;99.90;;;-2.64;98.28;99577.53;5085001;28;20459;-71
2022/01/25 01:15:29;;;;;;;16.57;10.77;;;-0.90;99.90;;;-2.52;98.31;99587.38;5062124;28;20916;-72
2022/01/25 01:29:19;;;;;;;22.03;11.43;;;-0.80;99.90;;;-2.57;98.42;99577.06;5070218;28;20508;-73
2022/01/25 01:31:57;;;;;;;18.37;13.37;;;-0.90;99.90;;;-2.56;98.79;99578.78;5075361;28;20430;-72
2022/01/25 01:40:12;;;;;;;19.90;13.87;;;-0.90;99.90;;;-2.56;99.18;99565.53;5057793;28;20935;-73
2022/01/25 01:48:09;;;;;;;18.60;13.97;;;-1.00;99.90;;;-2.80;99.82;99572.31;5073672;28;20522;-73
2022/01/25 01:50:38;;;;;;;19.20;13.50;;;-1.10;99.90;;;-2.72;99.74;99570.06;5056929;28;20552;-73
2022/01/25 01:53:07;;;;;;;19.03;14.10;;;-1.10;99.90;;;-2.65;99.20;99565.25;5074011;28;20438;-73
2022/01/25 01:55:37;;;;;;;17.80;13.20;;;-1.00;99.90;;;-2.66;98.67;99559.09;5055746;28;20971;-72
2022/01/25 01:58:05;;;;;;;16.93;14.33;;;-1.00;99.90;;;-2.71;98.64;99562.03;5072872;28;20445;-73
2022/01/25 02:00:38;;;;;;;20.10;14.10;;;-1.00;99.90;;;-2.95;99.63;99547.63;5073649;28;20884;-73
2022/01/25 02:03:05;;;;;;;22.10;14.80;;;-1.20;99.90;;;-3.08;100.00;99543.06;5073916;28;20430;-72
2022/01/25 02:05:33;;;;;;;18.17;13.77;;;-1.30;99.90;;;-3.10;100.00;99547.59;5074348;28;20481;-73
2022/01/25 02:08:01;;;;;;;21.33;14.20;;;-1.40;99.90;;;-3.11;100.00;99550.31;5055743;28;20465;-73
2022/01/25 02:10:29;;;;;;;21.00;14.60;;;-1.40;99.90;;;-3.06;100.00;99545.63;5073877;28;20468;-73
2022/01/25 02:12:58;;;;;;;25.40;15.53;;;-1.40;99.90;;;-3.21;100.00;99526.22;5072669;28;20522;-72
2022/01/25 02:15:27;;;;;;;18.57;13.50;;;-1.40;99.90;;;-3.16;100.00;99534.75;5073474;28;20959;-74
2022/01/25 02:23:25;;;;;;;18.83;12.93;;;-1.30;99.90;;;-2.76;100.00;99539.44;5073193;28;20563;-72
2022/01/25 02:25:55;;;;;;;20.73;13.87;;;-1.20;99.90;;;-2.70;99.34;99541.69;5056000;28;20437;-70
2022/01/25 02:28:24;;;;;;;21.63;14.73;;;-1.10;99.90;;;-2.69;99.36;99535.47;5073331;28;20962;-72
2022/01/25 02:30:51;;;;;;;19.23;13.47;;;-1.10;99.90;;;-2.71;98.98;99535.56;5055613;28;20469;-72
2022/01/25 02:33:18;;;;;;;21.50;14.30;;;-1.00;99.90;;;-2.67;99.30;99524.81;5073548;28;20525;-72
2022/01/25 02:35:47;;;;;;;19.30;14.07;;;-1.00;99.90;;;-2.68;98.77;99528.38;5055722;28;20528;-71
2022/01/25 02:38:15;;;;;;;20.10;12.87;;;-1.00;99.90;;;-2.71;99.00;99529.41;5072175;28;20469;-72
2022/01/25 02:40:42;;;;;;;22.13;14.13;;;-1.00;99.90;;;-2.68;99.12;99523.94;5055818;28;20465;-72
2022/01/25 02:43:09;;;;;;;21.93;14.27;;;-1.00;99.90;;;-2.71;99.38;99522.34;5055227;28;20846;-72
2022/01/25 02:45:37;;;;;;;18.80;13.47;;;-1.00;99.90;;;-2.70;98.58;99536.41;5055511;28;20464;-71
2022/01/25 02:50:51;;;;;;;18.27;13.37;;;-1.00;99.90;;;-2.82;99.56;99538.00;5055834;28;20472;-71
2022/01/25 02:53:18;;;;;;;21.90;13.23;;;-1.10;99.90;;;-2.94;99.73;99533.47;5039008;28;20963;-72
2022/01/25 02:55:45;;;;;;;22.40;13.73;;;-1.20;99.90;;;-2.94;99.62;99526.38;5060046;28;20895;-72
2022/01/25 02:58:12;;;;;;;20.60;14.83;;;-1.30;99.90;;;-2.94;99.57;99523.75;5076526;28;20460;-72
2022/01/25 03:00:39;;;;;;;20.37;15.47;;;-1.30;99.90;;;-3.03;99.88;99508.41;5073454;28;20433;-72
2022/01/25 03:03:06;;;;;;;17.47;12.83;;;-1.30;99.90;;;-2.99;99.92;99515.22;5055371;28;20560;-72
2022/01/25 03:05:34;;;;;;;15.13;12.77;;;-1.30;99.90;;;-2.96;99.73;99524.75;5055034;28;20762;-71
2022/01/25 03:08:02;;;;;;;18.10;13.60;;;-1.20;99.90;;;-2.90;100.00;99521.72;5072586;28;20448;-70
2022/01/25 03:10:38;;;;;;;22.07;15.77;;;-1.20;99.90;;;-2.87;99.68;99519.75;5073146;28;20552;-71
2022/01/25 03:13:10;;;;;;;18.80;13.27;;;-1.20;99.90;;;-2.94;99.53;99517.59;5073278;28;20457;-71
2022/01/25 03:15:55;;;;;;;18.90;13.83;;;-1.20;99.90;;;-2.93;100.00;99524.56;5055694;28;20582;-72
2022/01/25 03:18:39;;;;;;;18.73;13.67;;;-1.20;99.90;;;-3.07;100.00;99517.47;5072294;28;20434;-71
2022/01/25 03:21:35;;;;;;;22.33;14.00;;;-1.30;99.90;;;-3.02;100.00;99516.25;5073569;28;20464;-71
2022/01/25 03:24:06;;;;;;;18.90;14.57;;;-1.30;99.90;;;-3.03;99.64;99503.13;5071920;28;20936;-72
2022/01/25 03:26:35;;;;;;;23.43;14.03;;;-1.30;99.90;;;-3.04;99.18;99504.06;5073128;28;20460;-72
2022/01/25 03:29:03;;;;;;;20.53;14.03;;;-1.30;99.90;;;-3.23;100.00;99502.53;5073456;28;20478;-71
2022/01/25 03:31:30;;;;;;;23.37;15.40;;;-1.50;99.90;;;-3.22;100.00;99498.06;5074618;28;20548;-71
2022/01/25 03:33:57;;;;;;;24.13;15.60;;;-1.50;99.90;;;-3.17;100.00;99499.50;5058874;28;20445;-70
2022/01/25 03:36:24;;;;;;;19.70;12.97;;;-1.50;99.90;;;-3.31;100.00;99502.09;5058639;28;20437;-71
2022/01/25 03:38:51;;;;;;;21.80;15.77;;;-1.60;99.90;;;-3.29;100.00;99502.88;5058707;28;20956;-71
2022/01/25 03:41:23;;;;;;;18.30;14.60;;;-1.70;99.90;;;-3.22;100.00;99496.28;5075172;28;20845;-71
2022/01/25 03:43:54;;;;;;;20.90;13.87;;;-1.60;99.90;;;-3.09;100.00;99503.50;5058521;28;20459;-71
2022/01/25 03:46:29;;;;;;;21.27;14.30;;;-1.50;99.90;;;-3.18;100.00;99483.75;5059246;28;20441;-70
2022/01/25 03:51:42;;;;;;;28.87;14.83;;;-1.40;99.90;;;-3.02;100.00;99502.19;5058131;28;20823;-71
2022/01/25 03:54:09;;;;;;;20.20;14.77;;;-1.40;99.90;;;-3.00;99.92;99501.16;5057634;28;20875;-70
2022/01/25 03:56:38;;;;;;;24.10;14.73;;;-1.30;99.90;;;-2.94;99.85;99499.94;5076234;28;20541;-70
2022/01/25 03:59:06;;;;;;;23.07;15.40;;;-1.30;99.90;;;-3.00;99.72;99495.84;5075228;28;20437;-70
2022/01/25 04:01:33;;;;;;;20.17;14.50;;;-1.30;99.90;;;-3.02;99.58;99487.16;5058133;28;20448;-71
2022/01/25 04:04:03;;;;;;;23.07;16.10;;;-1.30;99.90;;;-2.99;99.46;99507.28;5076053;28;20491;-70
2022/01/25 04:06:32;;;;;;;22.10;15.30;;;-1.30;99.90;;;-3.03;99.96;99492.53;5058670;28;20441;-71
2022/01/25 04:09:03;;;;;;;19.70;14.37;;;-1.30;99.90;;;-3.03;99.82;99501.34;5057806;28;20853;-70
2022/01/25 04:11:30;;;;;;;20.67;13.73;;;-1.30;99.90;;;-3.00;100.00;99495.84;5075729;28;20461;-71
2022/01/25 04:13:59;;;;;;;22.47;16.13;;;-1.30;99.90;;;-2.99;100.00;99497.56;5058167;28;20933;-71
2022/01/25 04:16:31;;;;;;;24.47;15.13;;;-1.30;99.90;;;-3.16;100.00;99482.69;5075550;28;20506;-71
2022/01/25 04:19:07;;;;;;;23.20;15.90;;;-1.30;99.90;;;-3.03;100.00;99493.41;5058081;28;20479;-72
2022/01/25 04:24:42;;;;;;;19.20;14.13;;;-1.30;99.90;;;-3.14;100.00;99491.38;5075870;28;20444;-72
2022/01/25 04:24:54;;;;;;;20.73;14.00;;;-1.40;99.90;;;-3.19;100.00;99488.16;5057492;28;20429;-72
2022/01/25 04:27:22;;;;;;;20.50;14.37;;;-1.50;99.90;;;-3.16;100.00;99492.44;5076241;28;20449;-72
2022/01/25 04:29:51;;;;;;;21.40;14.60;;;-1.50;99.90;;;-3.37;100.00;99497.19;5075428;28;20457;-71
2022/01/25 04:32:18;;;;;;;25.33;16.03;;;-1.60;99.90;;;-3.33;100.00;99485.50;5057242;28;20441;-72
2022/01/25 04:35:08;;;;;;;25.47;15.23;;;-1.60;99.90;;;-3.52;100.00;99449.59;5075399;28;20532;-72
2022/01/25 04:48:56;;;;;;;17.23;13.90;;;-1.50;99.90;;;-3.28;99.72;99483.41;5057328;28;20437;-71
2022/01/25 04:54:11;;;;;;;21.67;14.00;;;-1.60;99.90;;;-3.34;100.00;99487.28;5066233;28;20441;-72
2022/01/25 04:56:44;;;;;;;19.00;14.17;;;-1.60;99.90;;;-3.24;100.00;99478.81;5057049;28;20433;-73
2022/01/25 04:59:18;;;;;;;24.07;14.80;;;-1.60;99.90;;;-3.20;99.45;99497.03;5075546;28;20528;-71
2022/01/25 05:01:48;;;;;;;20.37;14.37;;;-1.50;99.90;;;-3.20;99.21;99497.03;5057574;28;20457;-72
2022/01/25 05:04:22;;;;;;;20.90;14.17;;;-1.50;99.90;;;-3.27;99.66;99490.41;5057172;28;20548;-73
2022/01/25 05:06:51;;;;;;;23.43;14.37;;;-1.50;99.90;;;-3.21;99.59;99495.34;5074079;28;20762;-73
2022/01/25 05:09:20;;;;;;;22.77;13.10;;;-1.50;99.90;;;-3.26;99.36;99497.44;5079910;28;20483;-72
2022/01/25 05:11:49;;;;;;;22.77;13.57;;;-1.50;99.90;;;-3.35;99.42;99490.03;5074592;28;20571;-72
2022/01/25 05:14:22;;;;;;;19.90;13.73;;;-1.60;99.90;;;-3.45;99.82;99481.78;5057335;28;20459;-72
2022/01/25 05:16:54;;;;;;;20.10;13.17;;;-1.60;99.90;;;-3.49;99.98;99491.69;5074474;28;20432;-72
2022/01/25 05:22:26;;;;;;;19.27;12.83;;;-1.80;99.90;;;-3.65;100.00;99472.38;5027867;28;20452;-72
2022/01/25 05:24:54;;;;;;;22.20;14.20;;;-1.80;99.90;;;-3.71;100.00;99482.38;4998357;28;20454;-72
2022/01/25 05:27:27;;;;;;;20.60;13.63;;;-2.00;99.90;;;-3.77;100.00;99487.16;5025228;28;20438;-73
2022/01/25 05:29:54;;;;;;;22.03;14.17;;;-2.00;99.90;;;-3.80;100.00;99489.94;5075119;28;20519;-72
2022/01/25 05:32:23;;;;;;;21.30;13.90;;;-2.10;99.90;;;-3.68;100.00;99486.59;5074344;28;21010;-71
2022/01/25 05:34:50;;;;;;;22.40;15.40;;;-2.00;99.90;;;-3.55;100.00;99486.75;5074120;28;20451;-71
2022/01/25 05:37:17;;;;;;;25.90;14.70;;;-1.90;99.90;;;-3.43;100.00;99480.72;5056101;28;20940;-72
2022/01/25 05:39:47;;;;;;;22.07;13.63;;;-1.90;99.90;;;-3.58;100.00;99476.34;5074675;28;20469;-75
2022/01/25 05:45:10;;;;;;;24.77;14.27;;;-1.80;99.90;;;-3.74;100.00;99408.56;5059962;28;20433;-73
2022/01/25 05:47:40;;;;;;;24.70;15.03;;;-1.70;99.90;;;-3.36;100.00;99469.81;5072961;28;20465;-73
2022/01/25 05:50:08;;;;;;;21.97;13.57;;;-1.60;99.90;;;-3.11;100.00;99495.66;5074329;28;20945;-72
2022/01/25 05:52:35;;;;;;;27.33;17.97;;;-1.50;99.90;;;-2.92;100.00;99486.59;5074514;28;20506;-74
2022/01/25 05:55:03;;;;;;;27.17;16.80;;;-1.30;99.90;;;-2.91;100.00;99475.94;5056564;28;20479;-75
2022/01/25 05:57:30;;;;;;;33.83;19.30;;;-1.20;99.90;;;-2.83;100.00;99503.69;5076275;28;20838;-73
2022/01/25 05:59:57;;;;;;;35.40;20.13;;;-1.10;99.90;;;-3.43;100.00;99417.31;5056081;28;20847;-70
2022/01/25 06:02:27;;;;;;;32.53;19.90;;;-1.20;99.90;;;-2.89;100.00;99495.19;5056575;28;20463;-71
2022/01/25 06:04:55;;;;;;;34.50;20.33;;;-1.20;99.90;;;-2.89;100.00;99496.97;5059135;28;20437;-71
2022/01/25 06:07:22;;;;;;;32.00;20.23;;;-1.20;99.90;;;-2.88;100.00;99496.91;5081101;28;20489;-71
2022/01/25 06:09:49;;;;;;;33.07;21.10;;;-1.10;99.90;;;-2.81;100.00;99496.50;5078743;28;20429;-70
2022/01/25 06:12:16;;;;;;;29.67;19.87;;;-1.10;99.90;;;-2.95;100.00;99498.22;5072807;28;20460;-71
2022/01/25 06:14:43;;;;;;;33.60;19.40;;;-1.10;99.90;;;-2.97;100.00;99500.09;5074019;28;20442;-72
2022/01/25 06:17:10;;;;;;;42.50;20.87;;;-1.10;99.90;;;-2.66;100.00;99503.50;5072616;28;20506;-71
2022/01/25 06:19:37;;;;;;;37.13;19.93;;;-1.00;99.90;;;-2.79;100.00;99505.25;5055738;28;20445;-74
2022/01/25 06:22:06;;;;;;;33.77;18.90;;;-1.10;99.90;;;-2.70;100.00;99504.66;5056217;28;20473;-70
2022/01/25 06:24:33;;;;;;;39.17;21.20;;;-1.00;99.90;;;-2.60;100.00;99508.44;5071907;28;20798;-70
2022/01/25 06:26:59;;;;;;;50.10;22.10;;;-1.00;99.90;;;-2.72;100.00;99510.06;5073236;28;20536;-70
2022/01/25 06:29:26;;;;;;;41.40;25.10;;;-1.00;99.90;;;-2.23;100.00;99512.38;5073419;28;20457;-72
2022/01/25 06:31:54;;;;;;;44.03;22.70;;;-0.80;99.90;;;-2.53;100.00;99505.41;5055875;28;20507;-70
2022/01/25 06:34:21;;;;;;;38.13;20.30;;;-0.80;99.90;;;-2.39;100.00;99505.41;5055475;28;20445;-72
2022/01/25 06:36:48;;;;;;;45.43;24.33;;;-0.80;99.90;;;-2.29;100.00;99508.31;5055483;28;20464;-72
2022/01/25 06:39:16;;;;;;;42.97;23.40;;;-0.60;99.90;;;-2.09;100.00;99507.06;5073379;28;20484;-71
2022/01/25 06:41:44;;;;;;;58.20;28.40;;;-0.50;99.90;;;-1.96;99.85;99501.84;5056133;28;20476;-71
2022/01/25 06:44:10;;;;;;;38.77;21.20;;;-0.50;99.90;;;-2.26;98.88;99476.38;5072845;28;20441;-72
2022/01/25 06:46:37;;;;;;;38.47;22.03;;;-0.50;99.90;;;-2.00;98.91;99509.13;5073053;28;20881;-71
2022/01/25 06:49:05;;;;;;;48.13;23.63;;;-0.40;99.90;;;-1.96;99.17;99504.50;5056290;28;20841;-72
2022/01/25 06:51:32;;;;;;;37.40;20.87;;;-0.40;99.90;;;-2.03;99.29;99509.34;5055176;28;20544;-73
2022/01/25 06:53:59;;;;;;;43.10;21.23;;;-0.40;99.90;;;-2.20;99.38;99507.75;5073373;28;20437;-74
2022/01/25 06:56:27;;;;;;;48.73;21.47;;;-0.50;99.90;;;-2.06;100.00;99511.31;5073577;28;20469;-72
2022/01/25 06:58:54;;;;;;;44.03;21.67;;;-0.50;99.90;;;-2.19;100.00;99516.56;5054828;28;21019;-72
2022/01/25 07:01:21;;;;;;;38.43;18.77;;;-0.50;99.90;;;-2.21;100.00;99500.75;5055558;28;20444;-72
2022/01/25 07:03:48;;;;;;;55.00;19.40;;;-0.50;99.90;;;-2.26;100.00;99505.50;5072890;28;20972;-72
2022/01/25 07:06:16;;;;;;;46.57;20.00;;;-0.60;99.90;;;-2.24;100.00;99505.38;5056600;28;20556;-71
2022/01/25 07:08:45;;;;;;;58.77;21.93;;;-0.50;99.90;;;-2.37;100.00;99497.38;5075824;28;21009;-70
2022/01/25 07:11:12;;;;;;;52.43;20.43;;;-0.50;99.90;;;-2.42;100.00;99513.53;5059121;28;20463;-70
2022/01/25 07:13:40;;;;;;;52.43;21.73;;;-0.60;99.90;;;-2.34;100.00;99510.41;5058691;28;21010;-71
2022/01/25 07:16:07;;;;;;;55.83;20.40;;;-0.60;99.90;;;-2.25;100.00;99519.56;5077014;28;20889;-70
2022/01/25 07:18:35;;;;;;;56.57;21.60;;;-0.50;99.90;;;-2.18;100.00;99520.91;5074985;28;20528;-70
2022/01/25 07:21:02;;;;;;;51.83;21.50;;;-0.50;99.90;;;-2.24;100.00;99526.56;5076579;28;20977;-71
2022/01/25 07:23:28;;;;;;;52.17;20.77;;;-0.50;99.90;;;-2.29;100.00;99525.06;5076804;28;20440;-72
2022/01/25 07:25:55;;;;;;;42.37;17.20;;;-0.50;99.90;;;-2.37;100.00;99522.03;5076743;28;20429;-73
2022/01/25 07:28:22;;;;;;;43.80;19.00;;;-0.60;99.90;;;-2.39;100.00;99528.41;5058876;28;20476;-72
2022/01/25 07:30:51;;;;;;;39.27;18.00;;;-0.70;99.90;;;-2.40;100.00;99535.47;5076131;28;20437;-72
2022/01/25 07:33:18;;;;;;;52.07;18.50;;;-0.70;99.90;;;-2.40;100.00;99526.69;5076131;28;20537;-71
2022/01/25 07:35:45;;;;;;;43.63;18.80;;;-0.70;99.90;;;-2.42;100.00;99524.13;5076011;28;20469;-70
2022/01/25 07:38:15;;;;;;;44.50;18.70;;;-0.70;99.90;;;-2.36;100.00;99523.72;5058856;28;20433;-71
2022/01/25 07:40:43;;;;;;;59.17;19.27;;;-0.60;99.90;;;-2.42;100.00;99519.69;5076472;28;20459;-71
2022/01/25 07:43:11;;;;;;;55.03;20.43;;;-0.70;99.90;;;-2.36;100.00;99507.84;5076509;28;20473;-70
2022/01/25 07:45:38;;;;;;;46.60;17.63;;;-0.70;99.90;;;-2.34;100.00;99505.97;5076265;28;20445;-71
2022/01/25 07:48:09;;;;;;;47.57;19.00;;;-0.70;99.90;;;-2.35;100.00;99508.72;5058791;28;20441;-71
2022/01/25 07:50:38;;;;;;;52.57;20.30;;;-0.60;99.90;;;-2.37;100.00;99507.97;5075747;28;20448;-71
2022/01/25 07:53:05;;;;;;;45.20;21.00;;;-0.60;99.90;;;-2.46;100.00;99497.00;5076003;28;20472;-71
2022/01/25 07:55:32;;;;;;;48.03;20.60;;;-0.70;99.90;;;-2.22;100.00;99519.38;5058090;28;20445;-72
2022/01/25 07:57:59;;;;;;;59.93;20.90;;;-0.60;99.90;;;-2.14;100.00;99523.25;5058078;28;20528;-71
2022/01/25 08:00:26;;;;;;;51.70;18.77;;;-0.50;99.90;;;-2.04;100.00;99520.88;5057711;28;20524;-72
2022/01/25 08:02:53;;;;;;;45.70;20.57;;;-0.40;99.90;;;-1.97;100.00;99533.72;5076269;28;20433;-71
2022/01/25 08:05:25;;;;;;;47.33;20.40;;;-0.40;99.90;;;-2.14;100.00;99509.16;5076020;28;20479;-71
2022/01/25 08:07:53;;;;;;;51.53;20.57;;;-0.40;99.90;;;-2.13;100.00;99516.16;5074560;28;20441;-71
2022/01/25 08:10:20;;;;;;;43.30;18.87;;;-0.40;99.90;;;-2.18;100.00;99512.97;5058136;28;20472;-71
2022/01/25 08:12:47;;;;;;;47.87;18.67;;;-0.50;99.90;;;-2.28;100.00;99529.41;5075095;28;20875;-71
2022/01/25 08:15:16;;;;;;;51.13;20.33;;;-0.60;99.90;;;-2.23;100.00;99504.44;5058140;28;20445;-71
2022/01/25 08:17:43;;;;;;;54.37;21.10;;;-0.50;99.90;;;-2.02;100.00;99526.06;5073375;28;20452;-71
2022/01/25 08:20:11;;;;;;;59.67;21.60;;;-0.40;99.90;;;-2.01;100.00;99522.47;5075613;28;20520;-71
2022/01/25 08:22:41;;;;;;;59.97;20.03;;;-0.30;99.90;;;-2.15;100.00;99524.19;5075677;28;20469;-75
2022/01/25 08:25:08;;;;;;;50.07;21.20;;;-0.40;99.90;;;-1.79;100.00;99521.09;5057604;28;20445;-71
2022/01/25 08:27:35;;;;;;;44.87;20.90;;;-0.20;99.90;;;-1.79;100.00;99524.59;5058366;28;20437;-71
2022/01/25 08:30:04;;;;;;;50.93;21.17;;;-0.20;99.90;;;-1.76;100.00;99527.03;5058477;28;20539;-70
2022/01/25 08:32:31;;;;;;;54.37;20.97;;;-0.20;99.90;;;-1.83;100.00;99523.09;5075623;28;20552;-72
2022/01/25 08:34:58;;;;;;;56.23;21.33;;;-0.10;99.90;;;-1.76;100.00;99523.53;5057370;28;20468;-71
2022/01/25 08:37:26;;;;;;;46.10;20.20;;;-0.10;99.90;;;-1.82;100.00;99524.78;5057422;28;20535;-72
2022/01/25 08:39:54;;;;;;;40.67;19.50;;;-0.10;99.90;;;-1.73;100.00;99518.03;5057271;28;20446;-71
2022/01/25 08:42:22;;;;;;;49.27;20.67;;;-0.10;99.90;;;-1.68;100.00;99518.56;5075286;28;20496;-70
2022/01/25 08:44:49;;;;;;;45.77;19.90;;;0.00;99.90;;;-1.61;100.00;99513.72;5074944;28;20781;-71
2022/01/25 08:47:16;;;;;;;51.53;20.03;;;0.00;99.90;;;-1.90;100.00;99508.53;5057275;28;20433;-71
2022/01/25 08:49:44;;;;;;;46.87;20.20;;;-0.10;99.90;;;-1.75;100.00;99527.91;5075472;28;20545;-71
2022/01/25 08:52:11;;;;;;;52.00;19.50;;;-0.10;99.90;;;-1.79;100.00;99521.09;5080807;28;20460;-71
2022/01/25 08:54:38;;;;;;;50.67;21.87;;;-0.10;99.90;;;-1.79;100.00;99516.63;5070607;28;20477;-71
2022/01/25 08:57:07;;;;;;;49.03;22.23;;;-0.10;99.90;;;-1.53;100.00;99521.19;5082013;28;20467;-74
2022/01/25 08:59:34;;;;;;;45.27;20.57;;;0.00;99.90;;;-1.39;100.00;99518.47;5079355;28;21001;-70
2022/01/25 09:02:02;;;;;;;50.67;20.80;;;0.20;99.90;;;-1.29;100.00;99524.00;5083460;28;20982;-71
2022/01/25 09:04:29;;;;;;;47.80;20.77;;;0.20;99.90;;;-1.54;100.00;99519.47;5079546;28;20446;-73
2022/01/25 09:06:56;;;;;;;43.17;19.40;;;0.20;99.90;;;-1.68;100.00;99529.19;5075253;28;20429;-73
2022/01/25 09:09:23;;;;;;;52.37;21.80;;;0.00;99.90;;;-1.36;100.00;99528.88;5057376;28;20441;-71
2022/01/25 09:11:50;;;;;;;41.33;18.93;;;0.20;99.90;;;-1.40;100.00;99522.06;5075182;28;20457;-73
2022/01/25 09:14:19;;;;;;;46.40;21.60;;;0.30;99.90;;;-1.26;99.86;99523.81;5075001;28;20521;-73
2022/01/25 09:16:46;;;;;;;53.50;21.50;;;0.30;99.90;;;-1.25;99.67;99519.34;5074851;28;20502;-73
2022/01/25 09:19:13;;;;;;;54.67;22.00;;;0.30;99.90;;;-1.63;100.00;99520.94;5074586;28;20449;-76
2022/01/25 09:21:40;;;;;;;45.90;21.77;;;0.10;99.90;;;-1.44;99.94;99521.44;5074764;28;20520;-73
2022/01/25 09:24:10;;;;;;;47.63;21.70;;;0.20;99.90;;;-1.55;100.00;99501.88;5075021;28;20495;-74
2022/01/25 09:26:37;;;;;;;51.03;22.03;;;0.10;99.90;;;-1.05;99.59;99515.34;5075151;28;20437;-76
2022/01/25 09:29:04;;;;;;;52.83;21.80;;;0.30;99.90;;;-1.04;98.35;99511.75;5056280;28;20441;-73
2022/01/25 09:31:33;;;;;;;41.00;20.73;;;0.40;99.90;;;-1.07;98.11;99519.91;5074402;28;20433;-74
2022/01/25 09:34:00;;;;;;;47.80;26.13;;;0.50;99.90;;;-0.92;98.27;99526.84;5073792;28;20519;-78
2022/01/25 09:36:27;;;;;;;43.17;21.27;;;0.60;99.90;;;-1.03;97.65;99521.41;5057773;28;20462;-81
2022/01/25 09:38:55;;;;;;;49.00;22.70;;;0.60;99.90;;;-1.21;98.65;99516.41;5077072;28;20445;-80
2022/01/25 09:41:24;;;;;;;47.43;21.47;;;0.50;99.90;;;-1.08;97.48;99519.06;5084828;28;20441;-80
2022/01/25 09:43:51;;;;;;;48.60;22.07;;;0.60;99.90;;;-1.11;98.76;99515.78;5085066;28;20445;-79
2022/01/25 09:46:18;;;;;;;44.90;21.70;;;0.50;99.90;;;-1.38;98.55;99519.31;5075754;28;20643;-81
2022/01/25 09:48:49;;;;;;;44.50;21.30;;;0.40;99.90;;;-1.22;98.88;99529.75;5074878;28;20528;-79
2022/01/25 09:51:19;;;;;;;48.40;21.37;;;0.40;99.90;;;-1.05;98.19;99528.63;5073707;28;20468;-79
2022/01/25 09:53:47;;;;;;;45.60;21.20;;;0.50;99.90;;;-0.92;98.08;99521.53;5074290;28;20452;-78
2022/01/25 09:56:14;;;;;;;47.17;22.50;;;0.60;99.90;;;-1.18;97.30;99534.75;5074298;28;20529;-79
2022/01/25 09:58:42;;;;;;;53.10;22.83;;;0.60;99.90;;;-1.26;98.23;99530.91;5074348;28;20520;-79
2022/01/25 10:01:09;;;;;;;45.40;21.00;;;0.50;99.90;;;-1.08;98.13;99531.50;5056350;28;20460;-78
2022/01/25 10:03:38;;;;;;;49.33;21.93;;;0.60;99.90;;;-1.00;98.83;99529.16;5074013;28;20493;-79
2022/01/25 10:06:14;;;;;;;40.87;22.30;;;0.60;99.90;;;-0.80;97.74;99532.28;5074258;28;20455;-79
2022/01/25 10:08:43;;;;;;;44.80;21.93;;;0.70;99.90;;;-0.89;97.68;99526.63;5074054;28;20952;-79
2022/01/25 10:11:14;;;;;;;46.53;24.00;;;0.70;99.90;;;-0.81;96.88;99527.91;5074138;28;20908;-78
2022/01/25 10:13:44;;;;;;;46.23;21.93;;;0.80;99.90;;;-1.11;97.49;99534.34;5074003;28;20470;-84
2022/01/25 10:16:14;;;;;;;42.33;21.47;;;0.60;99.90;;;-1.08;98.68;99528.84;5076119;28;20477;-84
2022/01/25 10:18:45;;;;;;;47.23;22.90;;;0.60;99.90;;;-1.09;97.97;99530.63;5073932;28;20449;-75
2022/01/25 10:21:21;;;;;;;45.30;20.63;;;0.60;99.90;;;-0.93;97.98;99522.47;5074008;28;20463;-74
2022/01/25 10:24:08;;;;;;;44.57;23.37;;;0.70;99.90;;;-0.79;97.46;99526.00;5055718;28;20488;-73
2022/01/25 10:26:47;;;;;;;47.10;20.70;;;0.80;99.90;;;-0.69;96.49;99526.22;5055711;28;20445;-75
2022/01/25 10:29:19;;;;;;;40.33;20.23;;;0.90;99.90;;;-0.89;95.75;99509.88;5055969;28;20775;-74
2022/01/25 10:31:49;;;;;;;44.23;21.60;;;0.80;99.40;;;-0.68;95.87;99518.16;5073630;28;20528;-76
2022/01/25 10:34:20;;;;;;;41.20;20.00;;;0.90;99.90;;;-0.75;95.54;99532.78;5073918;28;20966;-76
2022/01/25 10:36:51;;;;;;;43.60;22.50;;;0.90;98.30;;;-0.90;95.95;99524.94;5073447;28;20457;-76
2022/01/25 10:39:24;;;;;;;45.47;21.10;;;0.80;98.50;;;-0.97;96.32;99515.69;5073171;28;20962;-74
2022/01/25 10:41:53;;;;;;;45.17;23.20;;;0.80;99.80;;;-0.95;96.49;99524.41;5054701;28;20525;-75
2022/01/25 10:44:20;;;;;;;43.93;21.93;;;0.80;99.90;;;-0.95;97.00;99527.06;5073760;28;20468;-74
2022/01/25 10:46:48;;;;;;;41.03;22.53;;;0.70;99.90;;;-0.82;96.18;99521.75;5054983;28;20788;-74
2022/01/25 10:49:16;;;;;;;40.17;20.90;;;0.80;99.90;;;-1.01;97.10;99524.81;5073251;28;20448;-75
2022/01/25 10:51:46;;;;;;;42.43;21.10;;;0.80;99.90;;;-0.57;96.71;99531.50;5055254;28;20436;-74
2022/01/25 10:54:17;;;;;;;48.83;23.90;;;0.90;99.90;;;-0.79;95.65;99521.53;5073262;28;20434;-75
2022/01/25 10:56:47;;;;;;;48.43;23.50;;;0.90;99.00;;;-0.58;96.14;99513.88;5055285;28;20445;-74
2022/01/25 10:59:18;;;;;;;48.13;22.53;;;0.90;99.90;;;-0.48;95.06;99510.59;5054863;28;20807;-75
2022/01/25 11:01:51;;;;;;;44.63;22.87;;;1.00;99.30;;;-0.22;93.57;99511.41;5071829;28;20517;-74
2022/01/25 11:04:23;;;;;;;43.90;22.67;;;1.20;99.00;;;-0.31;93.15;99510.25;5073351;28;20434;-74
2022/01/25 11:06:57;;;;;;;47.93;22.10;;;1.30;95.80;;;-0.45;94.14;99497.09;5054928;28;20437;-73
2022/01/25 11:09:34;;;;;;;40.33;21.30;;;1.20;96.60;;;-0.35;93.27;99519.41;5074027;28;20931;-75
2022/01/25 11:12:01;;;;;;;39.20;20.37;;;1.30;95.00;;;-0.62;94.43;99507.09;5072928;28;20448;-75
2022/01/25 11:17:13;;;;;;;37.80;20.87;;;1.00;98.40;;;-0.43;94.70;99521.72;5073068;28;20465;-75
2022/01/25 11:19:41;;;;;;;35.77;19.60;;;1.10;99.30;;;-0.47;94.40;99512.28;5072991;28;20447;-75
2022/01/25 11:22:12;;;;;;;42.83;21.13;;;1.10;97.20;;;-0.70;94.44;99511.25;5073211;28;20820;-75
2022/01/25 11:24:41;;;;;;;41.70;21.80;;;1.10;95.40;;;-0.67;95.44;99503.06;5055024;28;20487;-74
2022/01/25 11:27:08;;;;;;;45.03;22.27;;;1.00;97.10;;;-0.40;94.72;99481.66;5072978;28;20514;-75
2022/01/25 11:29:39;;;;;;;43.17;23.70;;;1.10;99.50;;;-0.78;94.91;99495.84;5055228;28;20522;-76
2022/01/25 11:32:11;;;;;;;41.03;21.70;;;1.10;96.70;;;-0.52;94.27;99504.63;5055639;28;20434;-76
2022/01/25 11:34:40;;;;;;;45.90;22.50;;;1.10;97.10;;;-0.54;94.66;99500.38;5072539;28;20487;-75
2022/01/25 11:37:09;;;;;;;42.10;22.63;;;1.10;97.10;;;-0.67;95.19;99498.63;5054612;28;20442;-76